createdAt,value
2022-10-11T00:00:32.036Z,10.17
2022-10-11T00:03:34.155Z,10.43
2022-10-11T00:06:38.118Z,10.90
2022-10-11T00:09:40.546Z,9.70
2022-10-11T00:12:42.707Z,10.03
2022-10-11T00:15:44.745Z,9.97
2022-10-11T00:18:47.077Z,9.93
2022-10-11T00:21:49.106Z,9.88
2022-10-11T00:24:52.819Z,9.50
2022-10-11T00:27:55.002Z,9.57
2022-10-11T00:30:57.163Z,9.20
2022-10-11T00:33:59.383Z,8.80
2022-10-11T00:37:01.592Z,9.88
2022-10-11T00:40:13.108Z,9.70
2022-10-11T00:43:18.344Z,9.30
2022-10-11T00:46:29.560Z,8.90
2022-10-11T00:49:38.327Z,9.02
2022-10-11T00:52:50.187Z,9.25
2022-10-11T00:55:57.526Z,9.32
2022-10-11T00:59:02.012Z,9.50
2022-10-11T01:02:06.836Z,8.60
2022-10-11T01:05:28.681Z,9.40
2022-10-11T01:08:34.931Z,8.98
2022-10-11T01:11:41.262Z,8.50
2022-10-11T01:14:58.688Z,9.80
2022-10-11T01:18:03.361Z,8.80
2022-10-11T01:21:17.676Z,8.68
2022-10-11T01:24:41.697Z,8.70
2022-10-11T01:28:09.135Z,8.15
2022-10-11T01:31:25.566Z,8.50
2022-10-11T01:34:37.278Z,8.30
2022-10-11T01:37:43.627Z,8.18
2022-10-11T01:41:09.923Z,8.73
2022-10-11T01:44:13.737Z,8.60
2022-10-11T01:47:23.365Z,8.30
2022-10-11T01:50:37.228Z,7.73
2022-10-11T01:55:07.669Z,6.82
2022-10-11T01:58:14.501Z,6.60
2022-10-11T02:01:33.703Z,7.00
2022-10-11T02:04:44.874Z,6.10
2022-10-11T02:08:03.009Z,6.33
2022-10-11T02:11:13.624Z,6.03
2022-10-11T02:14:23.231Z,5.93
2022-10-11T02:17:34.561Z,6.40
2022-10-11T02:20:40.483Z,6.43
2022-10-11T02:23:56.446Z,6.47
2022-10-11T02:27:03.079Z,6.22
2022-10-11T02:30:08.175Z,5.82
2022-10-11T02:33:14.576Z,6.25
2022-10-11T02:36:25.039Z,6.57
2022-10-11T02:39:34.351Z,6.30
2022-10-11T02:42:44.539Z,6.32
2022-10-11T02:45:54.913Z,6.53
2022-10-11T02:49:00.691Z,6.80
2022-10-11T02:52:06.054Z,6.80
2022-10-11T02:55:09.044Z,7.20
2022-10-11T02:58:11.004Z,6.97
2022-10-11T03:01:13.306Z,7.07
2022-10-11T03:04:15.464Z,6.80
2022-10-11T03:07:17.478Z,7.23
2022-10-11T03:10:19.515Z,6.23
2022-10-11T03:13:22.006Z,6.70
2022-10-11T03:16:23.989Z,6.90
2022-10-11T03:19:26.718Z,7.00
2022-10-11T03:22:28.668Z,7.40
2022-10-11T03:25:30.724Z,6.77
2022-10-11T03:28:32.753Z,6.87
2022-10-11T03:31:35.933Z,7.15
2022-10-11T03:34:37.914Z,7.60
2022-10-11T03:37:39.924Z,7.50
2022-10-11T03:40:42.877Z,7.37
2022-10-11T03:43:44.882Z,7.55
2022-10-11T03:46:46.858Z,8.32
2022-10-11T03:49:48.935Z,7.40
2022-10-11T03:52:51.166Z,7.57
2022-10-11T03:55:54.783Z,6.90
2022-10-11T03:58:56.823Z,7.75
2022-10-11T04:01:58.873Z,8.00
2022-10-11T04:05:01.900Z,7.40
2022-10-11T04:08:06.324Z,7.03
2022-10-11T04:11:11.800Z,7.33
2022-10-11T04:14:13.839Z,7.45
2022-10-11T04:17:15.882Z,6.78
2022-10-11T04:20:18.293Z,7.15
2022-10-11T04:23:20.272Z,6.73
2022-10-11T04:26:22.239Z,7.27
2022-10-11T04:29:27.736Z,7.03
2022-10-11T04:32:33.617Z,6.87
2022-10-11T04:35:35.725Z,6.97
2022-10-11T04:38:37.791Z,7.13
2022-10-11T04:41:39.875Z,7.07
2022-10-11T04:44:41.812Z,7.22
2022-10-11T04:47:43.769Z,7.85
2022-10-11T04:50:46.097Z,7.80
2022-10-11T04:53:48.869Z,7.53
2022-10-11T04:56:50.945Z,7.30
2022-10-11T04:59:52.897Z,8.98
2022-10-11T05:02:55.358Z,8.40
2022-10-11T05:05:59.989Z,8.45
2022-10-11T05:09:04.128Z,8.37
2022-10-11T05:12:06.393Z,7.23
2022-10-11T05:15:08.968Z,7.55
2022-10-11T05:18:11.027Z,8.38
2022-10-11T05:21:19.401Z,8.57
2022-10-11T05:24:21.487Z,7.90
2022-10-11T05:27:23.429Z,7.33
2022-10-11T05:30:25.392Z,7.37
2022-10-11T05:33:27.466Z,7.25
2022-10-11T05:36:29.479Z,7.62
2022-10-11T05:39:31.493Z,6.50
2022-10-11T05:42:33.532Z,6.43
2022-10-11T05:45:38.391Z,7.55
2022-10-11T05:48:40.637Z,7.35
2022-10-11T05:51:42.625Z,7.55
2022-10-11T05:54:44.621Z,7.90
2022-10-11T05:57:46.791Z,7.03
2022-10-11T06:00:48.849Z,7.10
2022-10-11T06:03:51.386Z,7.50
2022-10-11T06:06:53.451Z,7.65
2022-10-11T06:09:55.426Z,8.87
2022-10-11T06:12:57.717Z,9.50
2022-10-11T06:15:59.685Z,9.82
2022-10-11T06:19:01.683Z,8.90
2022-10-11T06:22:03.718Z,9.38
2022-10-11T06:25:06.474Z,10.03
2022-10-11T06:28:08.604Z,8.23
2022-10-11T06:31:11.204Z,9.32
2022-10-11T06:34:13.140Z,9.73
2022-10-11T06:37:15.383Z,9.88
2022-10-11T06:40:17.782Z,9.00
2022-10-11T06:43:20.230Z,7.97
2022-10-11T06:46:24.335Z,8.43
2022-10-11T06:49:26.397Z,7.35
2022-10-11T06:52:28.474Z,7.80
2022-10-11T06:55:32.486Z,7.70
2022-10-11T06:58:34.695Z,8.27
2022-10-11T07:01:36.719Z,7.55
2022-10-11T07:04:39.449Z,8.60
2022-10-11T07:07:41.490Z,8.20
2022-10-11T07:10:43.523Z,8.23
2022-10-11T07:13:50.990Z,7.87
2022-10-11T07:16:52.952Z,7.47
2022-10-11T07:19:54.907Z,7.32
2022-10-11T07:22:56.965Z,7.80
2022-10-11T07:25:59.436Z,7.00
2022-10-11T07:29:01.699Z,7.63
2022-10-11T07:32:03.901Z,7.97
2022-10-11T07:35:06.153Z,7.55
2022-10-11T07:38:08.584Z,7.70
2022-10-11T07:41:11.263Z,11.80
2022-10-11T07:44:14.097Z,12.23
2022-10-11T07:47:16.150Z,8.48
2022-10-11T07:50:18.384Z,7.00
2022-10-11T07:53:20.355Z,6.25
2022-10-11T07:56:28.299Z,6.68
2022-10-11T07:59:30.291Z,6.67
2022-10-11T08:02:32.431Z,7.25
2022-10-11T08:05:35.082Z,6.70
2022-10-11T08:08:37.773Z,6.45
2022-10-11T08:11:40.185Z,7.62
2022-10-11T08:14:42.300Z,7.30
2022-10-11T08:17:44.212Z,7.10
2022-10-11T08:20:46.685Z,6.90
2022-10-11T08:23:48.826Z,6.47
2022-10-11T08:26:52.025Z,7.47
2022-10-11T08:29:53.997Z,7.13
2022-10-11T08:32:57.055Z,6.78
2022-10-11T08:35:59.150Z,7.65
2022-10-11T08:39:01.325Z,7.22
2022-10-11T08:42:16.065Z,7.60
2022-10-11T08:45:30.227Z,7.83
2022-10-11T08:48:38.565Z,8.93
2022-10-11T08:51:45.696Z,8.13
2022-10-11T08:54:58.333Z,8.43
2022-10-11T08:58:00.841Z,8.80
2022-10-11T09:01:03.338Z,8.33
2022-10-11T09:04:06.294Z,8.68
2022-10-11T09:07:28.070Z,8.50
2022-10-11T09:10:54.955Z,9.82
2022-10-11T09:14:31.515Z,8.43
2022-10-11T09:18:02.778Z,8.53
2022-10-11T09:21:12.835Z,9.93
2022-10-11T09:24:31.725Z,9.68
2022-10-11T09:28:01.180Z,10.18
2022-10-11T09:31:00.452Z,9.95
2022-10-11T09:34:15.175Z,9.47
2022-10-11T09:37:30.288Z,9.98
2022-10-11T09:40:49.259Z,10.63
2022-10-11T09:43:52.577Z,10.90
2022-10-11T09:46:56.229Z,10.30
2022-10-11T09:50:04.386Z,11.97
2022-10-11T09:53:07.849Z,10.90
2022-10-11T09:56:10.194Z,10.77
2022-10-11T09:59:27.295Z,10.68
2022-10-11T10:02:31.267Z,11.00
2022-10-11T10:05:37.043Z,11.03
2022-10-11T10:08:39.066Z,9.82
2022-10-11T10:11:41.172Z,10.68
2022-10-11T10:14:43.221Z,10.18
2022-10-11T10:17:51.183Z,9.73
2022-10-11T10:20:56.391Z,10.07
2022-10-11T10:24:03.281Z,10.63
2022-10-11T10:27:14.682Z,10.40
2022-10-11T10:30:19.645Z,9.60
2022-10-11T10:33:24.683Z,10.38
2022-10-11T10:36:35.667Z,10.23
2022-10-11T10:39:45.085Z,9.45
2022-10-11T10:42:47.144Z,9.98
2022-10-11T10:46:34.352Z,10.15
2022-10-11T10:50:14.156Z,10.27
2022-10-11T10:53:40.742Z,9.20
2022-10-11T10:57:20.982Z,9.35
2022-10-11T11:00:24.414Z,9.25
2022-10-11T11:04:01.892Z,9.05
2022-10-11T11:07:19.133Z,9.25
2022-10-11T11:10:45.194Z,9.13
2022-10-11T11:14:02.463Z,8.05
2022-10-11T11:17:25.226Z,8.82
2022-10-11T11:20:39.384Z,8.20
2022-10-11T11:24:01.452Z,8.63
2022-10-11T11:27:31.088Z,8.40
2022-10-11T11:30:57.870Z,7.87
2022-10-11T11:34:44.584Z,7.80
2022-10-11T11:37:48.436Z,8.10
2022-10-11T11:40:57.410Z,7.93
2022-10-11T11:44:16.153Z,8.10
2022-10-11T11:47:24.285Z,7.50
2022-10-11T11:50:28.634Z,7.43
2022-10-11T11:53:32.337Z,7.60
2022-10-11T11:56:51.012Z,7.03
2022-10-11T12:00:02.210Z,8.00
2022-10-11T12:03:13.566Z,7.57
2022-10-11T12:06:20.450Z,6.97
2022-10-11T12:09:23.369Z,7.12
2022-10-11T12:12:34.130Z,7.35
2022-10-11T12:15:37.107Z,7.63
2022-10-11T12:19:01.872Z,7.15
2022-10-11T12:22:36.890Z,7.15
2022-10-11T12:25:41.112Z,7.05
2022-10-11T12:28:43.569Z,6.82
2022-10-11T12:31:50.906Z,7.00
2022-10-11T12:35:31.412Z,8.05
2022-10-11T12:38:37.933Z,7.00
2022-10-11T12:41:49.015Z,7.50
2022-10-11T12:45:13.310Z,7.20
2022-10-11T12:48:38.414Z,7.07
2022-10-11T12:52:04.831Z,6.53
2022-10-11T12:55:09.804Z,5.65
2022-10-11T12:58:17.876Z,5.47
2022-10-11T13:01:27.297Z,5.75
2022-10-11T13:04:32.903Z,4.97
2022-10-11T13:07:35.864Z,4.90
2022-10-11T13:10:44.949Z,5.40
2022-10-11T13:13:56.199Z,3.78
2022-10-11T13:17:04.128Z,4.70
2022-10-11T13:20:09.292Z,4.73
2022-10-11T13:23:23.359Z,3.97
2022-10-11T13:26:28.094Z,3.47
2022-10-11T13:29:33.978Z,4.40
2022-10-11T13:32:36.738Z,4.82
2022-10-11T13:35:39.092Z,3.10
2022-10-11T13:38:41.433Z,4.40
2022-10-11T13:41:43.828Z,5.07
2022-10-11T13:44:47.209Z,4.20
2022-10-11T13:47:51.353Z,3.95
2022-10-11T13:51:18.055Z,3.80
2022-10-11T13:54:20.046Z,3.40
2022-10-11T13:57:32.931Z,4.32
2022-10-11T14:00:39.673Z,4.12
2022-10-11T14:03:46.310Z,4.40
2022-10-11T14:06:56.715Z,3.93
2022-10-11T14:09:58.877Z,4.18
2022-10-11T14:13:35.126Z,4.35
2022-10-11T14:16:37.217Z,5.15
2022-10-11T14:19:39.761Z,4.90
2022-10-11T14:22:41.813Z,5.03
2022-10-11T14:25:43.852Z,5.45
2022-10-11T14:28:49.506Z,5.12
2022-10-11T14:32:01.429Z,5.50
2022-10-11T14:35:04.115Z,4.40
2022-10-11T14:38:06.174Z,4.27
2022-10-11T14:41:08.210Z,4.55
2022-10-11T14:44:10.736Z,4.93
2022-10-11T14:47:17.006Z,4.85
2022-10-11T14:50:35.036Z,5.00
2022-10-11T14:53:40.867Z,5.00
2022-10-11T14:56:43.068Z,4.57
2022-10-11T14:59:45.071Z,4.57
2022-10-11T15:02:47.334Z,4.72
2022-10-11T15:05:49.328Z,4.80
2022-10-11T15:08:51.523Z,4.43
2022-10-11T15:11:54.882Z,5.50
2022-10-11T15:14:56.807Z,4.62
2022-10-11T15:18:00.479Z,4.75
2022-10-11T15:21:02.580Z,4.97
2022-10-11T15:24:04.753Z,4.60
2022-10-11T15:27:06.744Z,4.82
2022-10-11T15:30:17.327Z,4.82
2022-10-11T15:33:19.581Z,4.80
2022-10-11T15:36:22.910Z,4.90
2022-10-11T15:39:33.917Z,5.50
2022-10-11T15:42:35.954Z,5.45
2022-10-11T15:45:38.660Z,5.60
2022-10-11T15:48:40.768Z,5.28
2022-10-11T15:51:44.183Z,6.12
2022-10-11T15:54:46.177Z,5.20
2022-10-11T15:57:48.189Z,5.30
2022-10-11T16:00:54.209Z,5.22
2022-10-11T16:03:56.315Z,5.40
2022-10-11T16:06:58.293Z,5.93
2022-10-11T16:10:00.354Z,5.03
2022-10-11T16:13:02.642Z,5.10
2022-10-11T16:16:10.317Z,5.35
2022-10-11T16:19:12.968Z,5.20
2022-10-11T16:22:15.077Z,5.60
2022-10-11T16:25:17.783Z,5.00
2022-10-11T16:28:19.819Z,5.30
2022-10-11T16:31:21.910Z,5.25
2022-10-11T16:34:24.105Z,5.05
2022-10-11T16:37:26.090Z,5.65
2022-10-11T16:40:30.164Z,6.17
2022-10-11T16:43:32.124Z,6.65
2022-10-11T16:46:34.641Z,6.10
2022-10-11T16:49:37.554Z,6.03
2022-10-11T16:52:39.549Z,6.03
2022-10-11T16:55:41.869Z,5.97
2022-10-11T16:58:43.935Z,6.00
2022-10-11T17:01:46.102Z,6.12
2022-10-11T17:04:51.550Z,6.68
2022-10-11T17:07:53.656Z,5.97
2022-10-11T17:10:57.703Z,6.17
2022-10-11T17:14:01.108Z,6.00
2022-10-11T17:17:04.902Z,5.95
2022-10-11T17:20:07.253Z,5.85
2022-10-11T17:23:09.787Z,6.60
2022-10-11T17:26:17.167Z,5.43
2022-10-11T17:29:21.473Z,5.90
2022-10-11T17:32:23.800Z,6.05
2022-10-11T17:35:25.718Z,6.18
2022-10-11T17:38:28.303Z,6.57
2022-10-11T17:41:32.244Z,7.23
2022-10-11T17:44:36.297Z,7.90
2022-10-11T17:47:38.264Z,8.00
2022-10-11T17:50:45.819Z,9.27
2022-10-11T17:53:51.081Z,9.93
2022-10-11T17:56:54.630Z,10.33
2022-10-11T17:59:57.822Z,10.95
2022-10-11T18:02:59.895Z,9.75
2022-10-11T18:06:07.133Z,10.30
2022-10-11T18:09:09.503Z,10.65
2022-10-11T18:12:11.446Z,9.73
2022-10-11T18:15:14.287Z,10.07
2022-10-11T18:18:18.273Z,9.95
2022-10-11T18:21:20.847Z,10.27
2022-10-11T18:24:23.194Z,9.85
2022-10-11T18:27:25.172Z,10.57
2022-10-11T18:30:27.322Z,9.88
2022-10-11T18:33:29.262Z,9.52
2022-10-11T18:36:33.385Z,9.80
2022-10-11T18:39:36.064Z,10.50
2022-10-11T18:42:38.441Z,9.80
2022-10-11T18:45:40.778Z,9.63
2022-10-11T18:48:44.929Z,10.05
2022-10-11T18:51:48.393Z,9.20
2022-10-11T18:54:51.667Z,9.90
2022-10-11T18:57:54.172Z,9.77
2022-10-11T19:01:03.540Z,9.35
2022-10-11T19:04:07.922Z,9.63
2022-10-11T19:07:10.177Z,8.70
2022-10-11T19:10:12.495Z,8.63
2022-10-11T19:13:14.940Z,9.17
2022-10-11T19:16:17.721Z,9.05
2022-10-11T19:19:22.337Z,10.02
2022-10-11T19:22:25.430Z,9.05
2022-10-11T19:25:28.343Z,9.43
2022-10-11T19:28:31.982Z,9.17
2022-10-11T19:31:36.486Z,9.23
2022-10-11T19:34:38.790Z,9.73
2022-10-11T19:37:41.120Z,10.13
2022-10-11T19:40:44.518Z,9.13
2022-10-11T19:43:47.058Z,9.57
2022-10-11T19:46:52.075Z,10.60
2022-10-11T19:49:55.211Z,11.27
2022-10-11T19:52:57.639Z,11.57
2022-10-11T19:56:05.950Z,10.82
2022-10-11T19:59:09.038Z,10.97
2022-10-11T20:02:12.996Z,10.48
2022-10-11T20:05:15.547Z,11.23
2022-10-11T20:08:17.645Z,10.60
2022-10-11T20:11:20.837Z,10.38
2022-10-11T20:14:22.942Z,10.20
2022-10-11T20:17:45.119Z,9.95
2022-10-11T20:20:59.385Z,10.25
2022-10-11T20:24:04.232Z,9.73
2022-10-11T20:27:06.669Z,10.18
2022-10-11T20:30:09.163Z,9.03
2022-10-11T20:33:11.219Z,8.77
2022-10-11T20:36:16.091Z,9.73
2022-10-11T20:39:18.141Z,9.23
2022-10-11T20:42:20.154Z,9.48
2022-10-11T20:45:22.173Z,8.67
2022-10-11T20:48:24.380Z,8.82
2022-10-11T20:51:27.094Z,8.60
2022-10-11T20:54:29.941Z,8.60
2022-10-11T20:57:32.196Z,8.98
2022-10-11T21:00:34.337Z,8.53
2022-10-11T21:03:36.466Z,8.82
2022-10-11T21:06:38.417Z,9.27
2022-10-11T21:09:40.448Z,8.73
2022-10-11T21:12:42.488Z,8.65
2022-10-11T21:15:44.479Z,8.63
2022-10-11T21:18:50.997Z,9.55
2022-10-11T21:21:53.951Z,9.15
2022-10-11T21:24:56.003Z,8.65
2022-10-11T21:27:57.977Z,9.27
2022-10-11T21:31:08.287Z,8.73
2022-10-11T21:34:10.351Z,8.48
2022-10-11T21:37:12.373Z,8.95
2022-10-11T21:40:14.443Z,8.40
2022-10-11T21:43:16.382Z,9.60
2022-10-11T21:46:20.068Z,9.50
2022-10-11T21:49:22.134Z,9.07
2022-10-11T21:52:24.188Z,9.27
2022-10-11T21:55:27.270Z,10.07
2022-10-11T21:58:29.349Z,9.55
2022-10-11T22:01:31.354Z,9.23
2022-10-11T22:04:33.431Z,9.18
2022-10-11T22:07:35.401Z,8.63
2022-10-11T22:10:37.339Z,9.52
2022-10-11T22:13:39.440Z,9.52
2022-10-11T22:16:41.448Z,8.53
2022-10-11T22:19:43.525Z,9.00
2022-10-11T22:22:45.547Z,8.57
2022-10-11T22:25:47.470Z,9.32
2022-10-11T22:28:49.897Z,9.97
2022-10-11T22:31:51.883Z,9.40
2022-10-11T22:34:53.974Z,9.52
2022-10-11T22:37:55.855Z,9.38
2022-10-11T22:40:58.948Z,9.35
2022-10-11T22:44:01.096Z,9.70
2022-10-11T22:47:03.137Z,9.07
2022-10-11T22:50:05.519Z,9.38
2022-10-11T22:53:08.658Z,9.43
2022-10-11T22:56:11.358Z,9.60
2022-10-11T22:59:13.610Z,9.83
2022-10-11T23:02:15.564Z,9.87
2022-10-11T23:05:17.783Z,9.32
2022-10-11T23:08:19.757Z,9.65
2022-10-11T23:11:21.773Z,9.65
2022-10-11T23:14:23.714Z,10.17
2022-10-11T23:17:25.783Z,9.97
2022-10-11T23:20:28.728Z,9.85
2022-10-11T23:23:31.076Z,10.57
2022-10-11T23:26:33.039Z,10.18
2022-10-11T23:29:35.133Z,10.37
2022-10-11T23:32:37.091Z,10.40
2022-10-11T23:35:39.107Z,10.90
2022-10-11T23:38:41.317Z,10.43
2022-10-11T23:41:43.979Z,10.73
2022-10-11T23:44:46.047Z,11.43
2022-10-11T23:47:48.126Z,10.97
2022-10-11T23:50:50.327Z,10.80
2022-10-11T23:53:52.274Z,11.10
2022-10-11T23:56:54.275Z,11.52
2022-10-11T23:59:56.275Z,11.20
